Time;durP1;ratioP1;P1;durP2;ratioP2;P2;SDS_P1;SDS_P2;PMS_P1;PMS_P2;Temp;Humidity;BMP_temperature;BMP_pressure;BME280_temperature;BME280_humidity;BME280_pressure;Samples;Min_cycle;Max_cycle;Signal;HPM_P1;HPM_P2
2021/12/26 00:00:53;;;;;;;16.47;9.67;;;;;0.60;100151.00;;;;10351015;28;20196;-77
2021/12/26 00:06:32;;;;;;;25.43;10.17;;;;;0.60;100141.00;;;;10361285;28;20191;-78
2021/12/26 00:12:08;;;;;;;19.63;10.20;;;;;0.50;100140.00;;;;10402194;28;20231;-78
2021/12/26 00:17:44;;;;;;;15.63;9.67;;;;;0.50;100128.00;;;;10389605;28;20257;-77
2021/12/26 00:23:22;;;;;;;18.93;12.50;;;;;0.50;100131.00;;;;10391772;28;20281;-78
2021/12/26 00:28:59;;;;;;;21.23;11.93;;;;;0.40;100123.00;;;;10420297;28;20214;-77
2021/12/26 00:34:35;;;;;;;14.30;10.30;;;;;0.40;100133.00;;;;10376412;28;20223;-77
2021/12/26 00:40:12;;;;;;;21.93;11.17;;;;;0.40;100119.00;;;;10358661;28;20260;-77
2021/12/26 00:45:49;;;;;;;19.63;11.40;;;;;0.40;100126.00;;;;10376745;28;20191;-77
2021/12/26 00:51:25;;;;;;;21.57;12.30;;;;;0.40;100122.00;;;;10391908;28;20223;-77
2021/12/26 00:57:01;;;;;;;22.50;12.23;;;;;0.50;100118.00;;;;10409032;28;20191;-78
2021/12/26 01:02:37;;;;;;;21.23;12.27;;;;;0.50;100117.00;;;;10401809;28;20191;-78
2021/12/26 01:08:14;;;;;;;20.60;12.57;;;;;0.50;100126.00;;;;10384032;28;20198;-78
2021/12/26 01:13:52;;;;;;;21.40;12.23;;;;;0.50;100126.00;;;;10393537;28;20232;-78
2021/12/26 01:20:03;;;;;;;24.50;13.00;;;;;0.60;100119.00;;;;10402314;28;20578;-77
2021/12/26 01:25:39;;;;;;;22.90;12.90;;;;;0.60;100110.00;;;;10369541;28;20249;-78
2021/12/26 01:31:20;;;;;;;21.97;12.93;;;;;0.60;100116.00;;;;10389896;28;20271;-78
2021/12/26 01:37:06;;;;;;;26.10;13.50;;;;;0.60;100107.00;;;;10346028;28;20237;-77
2021/12/26 01:43:21;;;;;;;26.33;14.70;;;;;0.60;100111.00;;;;10185605;29;20233;-78
2021/12/26 01:49:13;;;;;;;20.97;12.53;;;;;0.60;100100.00;;;;10360656;28;20243;-78
2021/12/26 01:55:00;;;;;;;28.23;15.10;;;;;0.60;100107.00;;;;10382119;28;20286;-78
2021/12/26 02:00:36;;;;;;;25.70;15.23;;;;;0.70;100096.00;;;;10403607;28;20629;-78
2021/12/26 02:06:13;;;;;;;28.23;15.67;;;;;0.70;100096.00;;;;10379749;28;20195;-78
2021/12/26 02:11:49;;;;;;;24.93;14.33;;;;;0.70;100101.00;;;;10381123;28;20222;-78
2021/12/26 02:17:26;;;;;;;27.93;14.90;;;;;0.70;100086.00;;;;10359824;28;20291;-78
2021/12/26 02:23:10;;;;;;;30.73;15.90;;;;;0.70;100089.00;;;;10373828;28;20199;-78
2021/12/26 02:28:50;;;;;;;34.20;16.83;;;;;0.70;100088.00;;;;10427622;28;20194;-77
2021/12/26 02:34:26;;;;;;;31.90;15.63;;;;;0.80;100085.00;;;;10422704;28;20242;-78
2021/12/26 02:40:02;;;;;;;25.27;15.00;;;;;0.80;100089.00;;;;10394334;28;20209;-77
2021/12/26 02:45:39;;;;;;;28.50;16.23;;;;;0.80;100076.00;;;;10414734;28;20199;-77
2021/12/26 02:51:15;;;;;;;30.07;16.50;;;;;0.80;100074.00;;;;10395755;28;20218;-78
2021/12/26 02:56:51;;;;;;;28.00;15.20;;;;;0.90;100068.00;;;;10393091;28;20205;-77
2021/12/26 03:02:27;;;;;;;27.80;15.80;;;;;0.90;100066.00;;;;10410694;28;20194;-78
2021/12/26 03:08:03;;;;;;;28.77;16.73;;;;;0.90;100067.00;;;;10381054;28;20195;-77
2021/12/26 03:13:39;;;;;;;31.23;17.83;;;;;0.90;100065.00;;;;10379953;28;20257;-77
2021/12/26 03:19:15;;;;;;;28.77;16.57;;;;;0.90;100065.00;;;;10392017;28;20187;-77
2021/12/26 03:24:51;;;;;;;28.67;16.43;;;;;1.00;100059.00;;;;10407755;28;20191;-77
2021/12/26 03:30:30;;;;;;;31.87;16.97;;;;;1.00;100068.00;;;;10376013;28;20215;-78
2021/12/26 03:36:06;;;;;;;26.40;16.13;;;;;1.00;100060.00;;;;10338900;28;20238;-78
2021/12/26 03:41:42;;;;;;;31.90;16.50;;;;;1.00;100056.00;;;;10400179;28;20198;-78
2021/12/26 03:47:18;;;;;;;28.90;16.30;;;;;1.00;100057.00;;;;10391986;28;20941;-78
2021/12/26 03:52:58;;;;;;;34.17;17.73;;;;;1.00;100060.00;;;;10391308;28;20219;-78
2021/12/26 03:58:38;;;;;;;28.47;15.83;;;;;1.00;100048.00;;;;10389286;28;20212;-77
2021/12/26 04:04:13;;;;;;;31.37;17.73;;;;;1.10;100050.00;;;;10361351;28;20197;-78
2021/12/26 04:09:49;;;;;;;28.37;15.73;;;;;1.10;100043.00;;;;10406866;28;20214;-78
2021/12/26 04:15:27;;;;;;;28.90;16.80;;;;;1.10;100050.00;;;;10370737;28;20202;-78
2021/12/26 04:21:05;;;;;;;28.93;16.47;;;;;1.10;100041.00;;;;10367501;28;20191;-78
2021/12/26 04:26:51;;;;;;;27.50;17.33;;;;;1.10;100051.00;;;;10381947;28;20296;-78
2021/12/26 04:32:27;;;;;;;25.70;16.27;;;;;1.10;100040.00;;;;10370014;28;20218;-78
2021/12/26 04:38:04;;;;;;;27.57;17.47;;;;;1.20;100036.00;;;;10395891;28;20186;-78
2021/12/26 04:43:40;;;;;;;29.93;17.03;;;;;1.20;100023.00;;;;10375345;28;20681;-78
2021/12/26 04:49:26;;;;;;;24.43;15.90;;;;;1.20;100015.00;;;;10360062;28;20241;-78
2021/12/26 04:55:05;;;;;;;23.90;15.87;;;;;1.20;100016.00;;;;10390247;28;20203;-78
2021/12/26 05:00:41;;;;;;;27.90;16.67;;;;;1.20;100001.00;;;;10385489;28;20195;-78
2021/12/26 05:06:17;;;;;;;23.60;14.80;;;;;1.20;100012.00;;;;10378580;28;20210;-78
2021/12/26 05:11:57;;;;;;;23.13;16.13;;;;;1.20;100006.00;;;;10379183;28;20294;-78
2021/12/26 05:17:33;;;;;;;26.70;19.00;;;;;1.20;99991.00;;;;10344440;28;20662;-78
2021/12/26 05:23:09;;;;;;;24.17;16.17;;;;;1.20;100001.00;;;;10391989;28;20198;-78
2021/12/26 05:28:46;;;;;;;22.40;15.80;;;;;1.20;99993.00;;;;10391417;28;20241;-78
2021/12/26 05:34:22;;;;;;;25.30;16.17;;;;;1.30;99997.00;;;;10395682;28;20199;-77
2021/12/26 05:40:00;;;;;;;24.23;16.47;;;;;1.30;99990.00;;;;10396306;28;20210;-77
2021/12/26 05:45:38;;;;;;;30.07;18.37;;;;;1.30;99985.00;;;;10404013;28;20213;-78
2021/12/26 05:51:14;;;;;;;27.00;17.40;;;;;1.40;99990.00;;;;10384313;28;20221;-78
2021/12/26 05:57:16;;;;;;;23.67;16.33;;;;;1.40;99988.00;;;;10363059;28;20207;-77
2021/12/26 06:02:54;;;;;;;27.23;17.57;;;;;1.40;99988.00;;;;10431327;28;20559;-78
2021/12/26 06:08:30;;;;;;;26.50;17.77;;;;;1.40;99998.00;;;;10388697;28;20198;-78
2021/12/26 06:14:07;;;;;;;25.70;17.40;;;;;1.40;99994.00;;;;10403649;28;20608;-78
2021/12/26 06:19:43;;;;;;;26.17;16.80;;;;;1.40;99997.00;;;;10379654;28;20187;-78
2021/12/26 06:25:30;;;;;;;29.00;17.03;;;;;1.50;99993.00;;;;10349409;28;20205;-78
2021/12/26 06:31:27;;;;;;;26.97;17.87;;;;;1.50;99990.00;;;;10387653;28;20230;-78
2021/12/26 06:37:26;;;;;;;27.23;18.50;;;;;1.60;99987.00;;;;10356633;28;20222;-78
2021/12/26 06:43:20;;;;;;;24.47;17.47;;;;;1.60;99985.00;;;;10359832;28;20206;-78
2021/12/26 06:49:14;;;;;;;26.30;16.43;;;;;1.70;99970.00;;;;10369245;28;20196;-78
2021/12/26 06:54:51;;;;;;;24.97;17.37;;;;;1.70;99967.00;;;;10418711;28;20210;-78
2021/12/26 07:00:27;;;;;;;27.67;19.20;;;;;1.70;99967.00;;;;10396683;28;20291;-78
2021/12/26 07:06:05;;;;;;;26.27;17.80;;;;;1.80;99965.00;;;;10393214;28;20195;-78
2021/12/26 07:11:41;;;;;;;28.00;18.97;;;;;1.80;99966.00;;;;10393690;28;20297;-78
2021/12/26 07:17:28;;;;;;;30.80;18.70;;;;;1.80;99965.00;;;;10396361;28;20733;-78
2021/12/26 07:23:04;;;;;;;25.43;17.13;;;;;1.80;99969.00;;;;10383098;28;20218;-78
2021/12/26 07:28:41;;;;;;;29.20;18.93;;;;;1.90;99980.00;;;;10385284;28;20617;-77
2021/12/26 07:34:25;;;;;;;30.50;18.97;;;;;1.90;99979.00;;;;10406823;28;20222;-78
2021/12/26 07:40:02;;;;;;;35.10;20.53;;;;;1.90;99977.00;;;;10351767;28;20210;-78
2021/12/26 07:45:38;;;;;;;26.07;18.27;;;;;1.90;99970.00;;;;10381375;28;20206;-78
2021/12/26 07:51:15;;;;;;;28.20;18.43;;;;;1.90;99992.00;;;;10398157;28;20578;-78
2021/12/26 07:57:09;;;;;;;25.40;17.40;;;;;2.00;99983.00;;;;10372081;28;20237;-77
2021/12/26 08:03:04;;;;;;;28.40;19.13;;;;;2.00;99978.00;;;;10394271;28;20194;-78
2021/12/26 08:08:58;;;;;;;27.33;17.87;;;;;2.00;99982.00;;;;10378587;28;20210;-78
2021/12/26 08:14:34;;;;;;;27.77;18.20;;;;;2.00;99985.00;;;;10386576;28;20784;-78
2021/12/26 08:20:11;;;;;;;24.57;18.00;;;;;2.00;99984.00;;;;10366460;28;20654;-78
2021/12/26 08:25:47;;;;;;;24.97;17.90;;;;;2.00;99988.00;;;;10384124;28;20217;-78
2021/12/26 08:31:24;;;;;;;27.80;17.83;;;;;2.00;99995.00;;;;10364744;28;20694;-78
2021/12/26 08:37:04;;;;;;;28.43;19.70;;;;;2.00;99982.00;;;;10398478;28;20226;-78
2021/12/26 16:19:19;;;;;;;34.33;22.43;;;;;5.60;99763.00;;;;10352297;28;20180;-78
2021/12/26 16:24:28;;;;;;;34.53;22.50;;;;;5.60;99755.00;;;;10337524;28;20192;-77
2021/12/26 16:29:30;;;;;;;36.03;21.60;;;;;5.60;99758.00;;;;10321652;28;20275;-77
2021/12/26 16:34:32;;;;;;;36.60;21.27;;;;;5.70;99746.00;;;;10387059;28;20277;-77
2021/12/26 16:39:34;;;;;;;36.03;22.77;;;;;5.70;99751.00;;;;10356525;28;20225;-77
2021/12/26 16:44:37;;;;;;;35.40;21.33;;;;;5.70;99754.00;;;;10338563;28;20719;-77
2021/12/26 16:49:44;;;;;;;34.50;22.20;;;;;5.70;99746.00;;;;10379880;28;20230;-76
2021/12/26 16:54:50;;;;;;;37.10;22.03;;;;;5.80;99739.00;;;;10382766;28;20194;-77
2021/12/26 16:59:53;;;;;;;35.30;21.83;;;;;5.80;99743.00;;;;10327411;28;20671;-77
2021/12/26 17:04:58;;;;;;;52.13;31.07;;;;;5.80;99739.00;;;;10331953;28;20207;-78
2021/12/26 17:10:02;;;;;;;32.87;22.13;;;;;5.80;99732.00;;;;10362725;28;20222;-78
2021/12/26 17:15:05;;;;;;;33.20;22.23;;;;;5.80;99740.00;;;;10340142;28;20238;-77
2021/12/26 17:20:09;;;;;;;38.73;22.20;;;;;5.80;99728.00;;;;10355775;28;20203;-77
2021/12/26 17:25:11;;;;;;;32.13;21.10;;;;;5.90;99741.00;;;;10324503;28;20204;-78
2021/12/26 17:30:17;;;;;;;34.40;22.10;;;;;5.90;99745.00;;;;10339241;28;20257;-78
2021/12/26 17:35:21;;;;;;;35.57;22.77;;;;;5.90;99734.00;;;;10387330;28;20222;-78
2021/12/26 17:40:23;;;;;;;33.70;22.20;;;;;5.90;99745.00;;;;10381030;28;20196;-78
2021/12/26 17:45:25;;;;;;;36.93;23.50;;;;;6.00;99744.00;;;;10348162;28;20219;-78
2021/12/26 17:50:27;;;;;;;42.17;24.30;;;;;6.00;99736.00;;;;10350320;28;20242;-78
2021/12/26 17:55:29;;;;;;;33.73;21.73;;;;;6.00;99735.00;;;;10347897;28;20204;-78
2021/12/26 18:00:31;;;;;;;34.70;19.90;;;;;6.00;99737.00;;;;10393332;28;20679;-78
2021/12/26 18:05:33;;;;;;;32.33;20.37;;;;;6.10;99734.00;;;;10334441;28;20287;-78
2021/12/26 18:10:35;;;;;;;35.77;22.00;;;;;6.20;99734.00;;;;10377559;28;20222;-78
2021/12/26 18:15:37;;;;;;;32.30;19.93;;;;;6.20;99740.00;;;;10351208;28;20202;-78
2021/12/26 18:20:39;;;;;;;36.73;21.43;;;;;6.20;99740.00;;;;10338675;28;20211;-78
2021/12/26 18:25:41;;;;;;;32.33;19.63;;;;;6.20;99736.00;;;;10360558;28;20199;-78
2021/12/26 18:30:44;;;;;;;32.40;19.73;;;;;6.30;99724.00;;;;10334593;28;20227;-78
2021/12/26 18:35:50;;;;;;;34.97;20.03;;;;;6.30;99725.00;;;;10394212;28;20215;-78
2021/12/26 18:40:52;;;;;;;29.07;18.70;;;;;6.40;99729.00;;;;10346283;28;20207;-78
2021/12/26 18:45:55;;;;;;;33.13;19.47;;;;;6.40;99727.00;;;;10366412;28;20393;-78
2021/12/26 18:50:57;;;;;;;30.30;18.47;;;;;6.50;99710.00;;;;10377952;28;20222;-78
2021/12/26 18:55:59;;;;;;;32.60;20.37;;;;;6.50;99708.00;;;;10320378;28;20200;-79
2021/12/26 19:01:01;;;;;;;32.57;19.07;;;;;6.50;99701.00;;;;10377077;28;20636;-78
2021/12/26 19:06:04;;;;;;;28.60;17.80;;;;;6.50;99702.00;;;;10353377;28;20234;-78
2021/12/26 19:11:06;;;;;;;30.27;19.70;;;;;6.50;99709.00;;;;10344913;28;20269;-79
2021/12/26 19:16:09;;;;;;;37.20;20.10;;;;;6.50;99715.00;;;;10334548;28;20211;-79
2021/12/26 19:21:11;;;;;;;29.20;18.93;;;;;6.50;99713.00;;;;10401452;28;20228;-79
2021/12/26 19:26:13;;;;;;;28.73;18.60;;;;;6.60;99702.00;;;;10325209;28;20195;-79
2021/12/26 19:31:21;;;;;;;29.37;17.27;;;;;6.60;99699.00;;;;10376624;28;20308;-79
2021/12/26 19:36:25;;;;;;;30.37;17.47;;;;;6.50;99700.00;;;;10376332;28;20239;-79
2021/12/26 19:41:27;;;;;;;23.87;16.47;;;;;6.50;99689.00;;;;10340883;28;20200;-78
2021/12/26 19:46:30;;;;;;;29.00;16.70;;;;;6.50;99694.00;;;;10392965;28;20199;-79
2021/12/26 19:51:33;;;;;;;30.97;20.00;;;;;6.50;99701.00;;;;10358351;28;20813;-78
2021/12/26 19:56:34;;;;;;;43.53;26.73;;;;;6.50;99701.00;;;;10332691;28;20224;-78
2021/12/26 20:01:36;;;;;;;37.50;23.00;;;;;6.60;99706.00;;;;10359442;28;20234;-78
2021/12/26 20:06:40;;;;;;;29.13;20.70;;;;;6.60;99710.00;;;;10372495;28;20208;-78
2021/12/26 20:11:42;;;;;;;34.97;21.47;;;;;6.60;99705.00;;;;10374252;28;20215;-79
2021/12/26 20:16:45;;;;;;;28.10;19.70;;;;;6.60;99704.00;;;;10375948;28;20223;-78
2021/12/26 20:21:50;;;;;;;26.33;18.00;;;;;6.70;99697.00;;;;10395281;28;20212;-78
2021/12/26 20:26:55;;;;;;;31.60;20.73;;;;;6.70;99694.00;;;;10390416;28;20203;-78
2021/12/26 20:31:57;;;;;;;28.73;18.77;;;;;6.70;99690.00;;;;10403144;28;20211;-78
2021/12/26 20:36:59;;;;;;;29.03;19.87;;;;;6.70;99689.00;;;;10341729;28;20667;-78
2021/12/26 20:42:03;;;;;;;29.53;19.70;;;;;6.80;99683.00;;;;10369184;28;20195;-79
2021/12/26 20:47:05;;;;;;;26.70;19.20;;;;;6.80;99681.00;;;;10362497;28;20247;-78
2021/12/26 20:52:15;;;;;;;27.57;18.43;;;;;6.80;99674.00;;;;10341730;28;20211;-78
2021/12/26 20:57:17;;;;;;;27.47;19.33;;;;;6.90;99678.00;;;;10371578;28;20203;-79
2021/12/26 21:02:18;;;;;;;32.37;20.73;;;;;6.90;99668.00;;;;10375360;28;20211;-79
2021/12/26 21:07:23;;;;;;;28.63;20.77;;;;;6.90;99664.00;;;;10332500;28;20555;-79
2021/12/26 21:12:27;;;;;;;28.47;18.07;;;;;7.00;99679.00;;;;10376994;28;20254;-79
2021/12/26 21:17:29;;;;;;;26.23;19.03;;;;;7.00;99670.00;;;;10332126;28;20282;-79
2021/12/26 21:22:33;;;;;;;27.47;19.40;;;;;7.00;99673.00;;;;10341131;28;20227;-79
2021/12/26 21:27:45;;;;;;;26.03;17.23;;;;;7.00;99674.00;;;;10369966;28;20212;-79
2021/12/26 21:32:48;;;;;;;31.93;19.00;;;;;7.00;99668.00;;;;10345629;28;20247;-78
2021/12/26 21:37:50;;;;;;;26.30;18.87;;;;;7.00;99661.00;;;;10361223;28;20187;-79
2021/12/26 21:42:52;;;;;;;25.27;18.27;;;;;7.00;99655.00;;;;10384202;28;20192;-78
2021/12/26 21:47:56;;;;;;;26.50;17.57;;;;;6.90;99662.00;;;;10340078;28;20230;-79
2021/12/26 21:52:59;;;;;;;24.73;17.10;;;;;7.00;99656.00;;;;10396367;28;20613;-79
2021/12/26 21:58:02;;;;;;;29.83;18.90;;;;;7.00;99645.00;;;;10339593;28;20198;-79
2021/12/26 22:03:05;;;;;;;27.70;17.87;;;;;7.00;99646.00;;;;10342221;28;20725;-79
2021/12/26 22:08:07;;;;;;;25.67;17.90;;;;;7.00;99648.00;;;;10342662;28;20258;-79
2021/12/26 22:13:09;;;;;;;27.87;17.77;;;;;6.90;99649.00;;;;10346893;28;20269;-79
2021/12/26 22:18:12;;;;;;;24.80;17.23;;;;;6.90;99634.00;;;;10369631;28;20554;-79
2021/12/26 22:23:17;;;;;;;27.70;18.27;;;;;6.80;99641.00;;;;10366582;28;20210;-79
2021/12/26 22:28:19;;;;;;;30.90;18.10;;;;;6.80;99647.00;;;;10363751;28;20210;-79
2021/12/26 22:33:21;;;;;;;31.63;18.40;;;;;6.80;99639.00;;;;10348141;28;20214;-79
2021/12/26 22:38:25;;;;;;;30.80;17.50;;;;;6.90;99642.00;;;;10379159;28;20297;-79
2021/12/26 22:43:27;;;;;;;28.60;16.20;;;;;6.90;99648.00;;;;10358498;28;20195;-79
2021/12/26 22:48:29;;;;;;;28.43;17.93;;;;;7.00;99634.00;;;;10328124;28;20254;-79
2021/12/26 22:53:31;;;;;;;28.57;17.63;;;;;7.00;99634.00;;;;10362556;28;20204;-79
2021/12/26 22:58:35;;;;;;;25.17;15.87;;;;;7.00;99637.00;;;;10356744;28;20231;-79
2021/12/26 23:03:37;;;;;;;33.13;18.80;;;;;7.10;99644.00;;;;10368697;28;20195;-79
2021/12/26 23:08:39;;;;;;;27.30;17.80;;;;;7.10;99642.00;;;;10382683;28;20236;-79
2021/12/26 23:13:41;;;;;;;27.10;17.27;;;;;7.10;99633.00;;;;10339650;28;20215;-79
2021/12/26 23:18:48;;;;;;;28.63;16.00;;;;;7.10;99634.00;;;;10329479;28;20204;-79
2021/12/26 23:23:50;;;;;;;28.87;17.37;;;;;7.10;99634.00;;;;10408195;28;20213;-78
2021/12/26 23:28:52;;;;;;;28.80;17.33;;;;;7.10;99628.00;;;;10362849;28;20213;-79
2021/12/26 23:33:57;;;;;;;30.70;17.70;;;;;7.10;99641.00;;;;10356100;28;20375;-79
2021/12/26 23:38:59;;;;;;;29.83;17.67;;;;;7.20;99636.00;;;;10347030;28;20253;-79
2021/12/26 23:44:01;;;;;;;31.60;18.37;;;;;7.20;99630.00;;;;10344332;28;20192;-79
2021/12/26 23:49:06;;;;;;;35.43;19.37;;;;;7.20;99633.00;;;;10344609;28;20679;-79
2021/12/26 23:54:09;;;;;;;31.37;17.97;;;;;7.20;99628.00;;;;10379341;28;20703;-79
2021/12/26 23:59:12;;;;;;;33.57;18.37;;;;;7.20;99628.00;;;;10369274;28;20187;-79
